Time;durP1;ratioP1;P1;durP2;ratioP2;P2;SDS_P1;SDS_P2;PMS_P1;PMS_P2;Temp;Humidity;BMP_temperature;BMP_pressure;BME280_temperature;BME280_humidity;BME280_pressure;Samples;Min_cycle;Max_cycle;Signal;HPM_P1;HPM_P2
2022/08/22 00:02:08;;;;;;;18.52;5.78;;;;;;;15.58;93.50;101440.97;5001065;28;20489;-75
2022/08/22 00:04:58;;;;;;;14.95;5.43;;;;;;;15.58;93.78;101442.81;4993809;28;20084;-75
2022/08/22 00:07:52;;;;;;;15.38;6.05;;;;;;;15.62;93.87;101444.28;5010177;28;20501;-75
2022/08/22 00:10:37;;;;;;;17.58;5.65;;;;;;;15.61;94.22;101446.13;4993612;28;20036;-75
2022/08/22 00:13:06;;;;;;;17.17;6.15;;;;;;;15.61;94.30;101437.13;5026117;28;20029;-75
2022/08/22 00:15:45;;;;;;;18.88;6.13;;;;;;;15.61;93.78;101439.84;5070742;28;20024;-75
2022/08/22 00:18:43;;;;;;;16.85;5.82;;;;;;;15.61;93.50;101446.13;5071981;28;20029;-75
2022/08/22 00:21:25;;;;;;;15.93;4.82;;;;;;;15.60;93.69;101444.41;5071984;28;20454;-75
2022/08/22 00:24:09;;;;;;;14.60;5.10;;;;;;;15.60;93.89;101439.00;5071893;28;20420;-75
2022/08/22 00:26:42;;;;;;;16.00;5.53;;;;;;;15.58;94.36;101440.97;5071811;28;20032;-75
2022/08/22 00:29:31;;;;;;;17.48;5.72;;;;;;;15.58;94.87;101438.28;5070688;28;20017;-75
2022/08/22 00:32:08;;;;;;;16.02;5.47;;;;;;;15.59;94.49;101439.13;5071249;28;20130;-75
2022/08/22 00:34:39;;;;;;;13.98;5.10;;;;;;;15.60;94.42;101448.97;5070355;28;20036;-75
2022/08/22 00:37:22;;;;;;;16.27;5.32;;;;;;;15.60;94.18;101436.28;5071977;28;20048;-75
2022/08/22 00:40:01;;;;;;;17.58;5.13;;;;;;;15.58;94.02;101440.97;5070487;28;20074;-75
2022/08/22 00:42:48;;;;;;;16.30;5.25;;;;;;;15.59;93.07;101441.84;5071863;28;20028;-75
2022/08/22 00:45:24;;;;;;;14.48;5.00;;;;;;;15.55;93.92;101436.69;5071755;28;20384;-75
2022/08/22 00:47:58;;;;;;;15.00;5.28;;;;;;;15.53;94.54;101444.09;5070417;28;20028;-75
2022/08/22 00:50:23;;;;;;;14.05;4.88;;;;;;;15.52;94.19;101439.66;5070402;28;20028;-75
2022/08/22 00:53:02;;;;;;;17.73;5.05;;;;;;;15.50;94.26;101447.03;5071822;28;20035;-75
2022/08/22 00:55:52;;;;;;;16.60;5.23;;;;;;;15.53;94.02;101445.91;5070251;28;20020;-75
2022/08/22 00:58:51;;;;;;;15.77;4.72;;;;;;;15.50;94.26;101446.19;5071750;28;20036;-75
2022/08/22 01:01:25;;;;;;;15.10;5.20;;;;;;;15.48;94.61;101443.59;5070630;28;20369;-76
2022/08/22 01:04:02;;;;;;;16.20;5.00;;;;;;;15.47;94.20;101444.59;5070364;28;20025;-76
2022/08/22 01:06:51;;;;;;;15.68;5.43;;;;;;;15.50;94.61;101443.47;5071571;28;20115;-76
2022/08/22 01:09:40;;;;;;;15.23;5.35;;;;;;;15.47;95.01;101444.59;5071600;28;20029;-76
2022/08/22 01:12:33;;;;;;;14.93;5.07;;;;;;;15.49;94.35;101441.75;5070097;28;20036;-76
2022/08/22 01:15:08;;;;;;;12.70;5.03;;;;;;;15.49;94.64;101429.09;5071265;28;20020;-76
2022/08/22 01:17:49;;;;;;;15.25;5.38;;;;;;;15.51;94.47;101434.38;5069994;28;20052;-76
2022/08/22 01:20:48;;;;;;;19.48;6.22;;;;;;;15.51;94.26;101434.38;5069983;28;20036;-76
2022/08/22 01:23:42;;;;;;;18.02;5.95;;;;;;;15.50;94.10;101436.19;5071706;28;20437;-76
2022/08/22 01:26:33;;;;;;;17.55;6.20;;;;;;;15.48;94.34;101435.47;5071339;28;20365;-77
2022/08/22 01:29:07;;;;;;;16.55;5.68;;;;;;;15.49;94.36;101439.03;5071329;28;20039;-77
2022/08/22 01:31:59;;;;;;;18.48;6.53;;;;;;;15.49;94.76;101436.31;5069762;28;20032;-77
2022/08/22 01:34:58;;;;;;;16.73;6.47;;;;;;;15.51;94.52;101432.50;5070411;28;20072;-77
2022/08/22 01:37:52;;;;;;;16.40;6.40;;;;;;;15.54;94.16;101439.53;5012977;28;20030;-77
2022/08/22 01:40:39;;;;;;;19.38;7.13;;;;;;;15.54;94.33;101436.81;5012882;28;20030;-77
2022/08/22 01:43:56;;;;;;;19.25;7.50;;;;;;;15.56;93.63;101434.81;5012808;28;20124;-77
2022/08/22 01:46:36;;;;;;;18.45;7.82;;;;;;;15.57;94.00;101436.53;4934861;29;20143;-77
2022/08/22 01:49:13;;;;;;;23.52;8.63;;;;;;;15.57;94.01;101433.00;4935098;29;20047;-77
2022/08/22 01:51:53;;;;;;;21.90;9.00;;;;;;;15.54;93.66;101421.41;4934897;29;20158;-77
2022/08/22 01:54:43;;;;;;;20.85;8.85;;;;;;;15.58;93.12;101430.16;4935091;29;20397;-77
2022/08/22 01:57:10;;;;;;;22.02;9.05;;;;;;;15.58;93.37;101423.84;4918723;29;20468;-77
2022/08/22 01:59:41;;;;;;;23.35;9.48;;;;;;;15.59;93.60;101431.84;4919049;29;20031;-77
2022/08/22 02:02:28;;;;;;;21.95;8.68;;;;;;;15.61;92.69;101429.00;4934812;29;20554;-77
2022/08/22 02:05:08;;;;;;;21.08;8.65;;;;;;;15.60;94.23;101422.72;4934951;29;20082;-77
2022/08/22 02:08:01;;;;;;;23.35;9.10;;;;;;;15.63;92.11;101427.03;4934882;29;20036;-77
2022/08/22 02:10:49;;;;;;;22.40;9.77;;;;;;;15.63;92.91;101427.88;4934513;29;20044;-77
2022/08/22 02:13:20;;;;;;;21.60;8.93;;;;;;;15.62;93.11;101426.16;4934983;29;20170;-77
2022/08/22 02:16:08;;;;;;;21.45;8.57;;;;;;;15.63;93.01;101429.75;4953760;29;20042;-77
2022/08/22 02:19:03;;;;;;;22.07;8.70;;;;;;;15.66;92.89;101422.19;4953679;29;20031;-77
2022/08/22 02:21:41;;;;;;;23.48;8.75;;;;;;;15.67;93.37;101418.50;4953700;29;20635;-77
2022/08/22 02:24:18;;;;;;;22.25;8.52;;;;;;;15.66;93.67;101422.19;5073916;28;20081;-77
2022/08/22 02:26:50;;;;;;;21.77;8.95;;;;;;;15.64;93.21;101417.94;5072501;28;20028;-77
2022/08/22 02:29:22;;;;;;;23.05;8.55;;;;;;;15.61;93.42;101427.16;5073960;28;20039;-77
2022/08/22 02:32:03;;;;;;;23.67;9.35;;;;;;;15.61;93.29;101419.03;5072344;28;20029;-77
2022/08/22 02:34:42;;;;;;;21.27;9.45;;;;;;;15.59;93.33;101418.28;5072311;28;20037;-77
2022/08/22 02:37:16;;;;;;;21.08;8.95;;;;;;;15.58;93.77;101416.59;5072529;28;20025;-77
2022/08/22 02:40:11;;;;;;;20.23;9.10;;;;;;;15.58;92.99;101416.59;5073884;28;20423;-77
2022/08/22 02:42:46;;;;;;;22.30;9.88;;;;;;;15.54;92.71;101412.44;5073553;28;20015;-77
2022/08/22 02:45:51;;;;;;;20.45;8.57;;;;;;;15.54;92.80;101420.56;5072064;28;20051;-77
2022/08/22 02:48:34;;;;;;;23.27;9.13;;;;;;;15.53;93.88;101418.81;5071949;28;20021;-77
2022/08/22 02:51:05;;;;;;;22.35;8.70;;;;;;;15.51;93.58;101418.13;5073487;28;20056;-77
2022/08/22 02:53:36;;;;;;;21.58;9.13;;;;;;;15.51;93.38;101416.25;5073490;28;20024;-77
2022/08/22 02:56:10;;;;;;;22.88;9.10;;;;;;;15.51;94.51;101418.97;5073552;28;20463;-77
2022/08/22 02:58:48;;;;;;;21.73;8.73;;;;;;;15.52;94.25;101417.09;5071909;28;20074;-77
2022/08/22 03:01:16;;;;;;;22.38;9.35;;;;;;;15.51;93.97;101408.13;5073110;28;20024;-77
2022/08/22 03:03:45;;;;;;;20.80;9.25;;;;;;;15.51;94.16;101412.69;5073057;28;20040;-77
2022/08/22 03:06:31;;;;;;;20.23;9.48;;;;;;;15.49;93.77;101410.13;5071833;28;20090;-77
2022/08/22 03:09:17;;;;;;;24.38;9.57;;;;;;;15.45;94.41;101419.50;5073062;28;20487;-77
2022/08/22 03:11:48;;;;;;;23.83;9.38;;;;;;;15.43;93.87;101415.19;5073137;28;20085;-77
2022/08/22 03:14:28;;;;;;;24.08;9.73;;;;;;;15.42;93.50;101421.59;5072027;28;20448;-77
2022/08/22 03:16:59;;;;;;;22.15;9.55;;;;;;;15.41;94.36;101419.88;5053376;28;20052;-77
2022/08/22 03:19:50;;;;;;;20.98;9.55;;;;;;;15.41;93.63;101418.03;5052839;28;20021;-77
2022/08/22 03:22:21;;;;;;;23.05;9.90;;;;;;;15.34;94.00;101409.56;5051702;28;20086;-77
2022/08/22 03:24:58;;;;;;;24.00;10.88;;;;;;;15.32;93.70;101399.84;5051601;28;20036;-77
2022/08/22 03:27:33;;;;;;;23.17;10.85;;;;;;;15.30;93.57;101393.69;5052777;28;20487;-77
2022/08/22 03:30:08;;;;;;;26.70;9.90;;;;;;;15.28;94.19;101396.53;5052575;28;20027;-77
2022/08/22 03:32:58;;;;;;;26.23;9.85;;;;;;;15.26;93.64;101400.38;5065283;28;20021;-77
2022/08/22 03:35:54;;;;;;;23.63;10.55;;;;;;;15.23;93.50;101393.38;5072758;28;20062;-77
2022/08/22 03:38:22;;;;;;;21.98;10.82;;;;;;;15.17;94.12;101399.31;5072584;28;20469;-77
2022/08/22 03:40:59;;;;;;;23.17;9.82;;;;;;;15.10;93.98;101387.28;5071277;28;20487;-77
2022/08/22 03:43:57;;;;;;;21.35;10.75;;;;;;;15.09;94.16;101390.97;5072526;28;20388;-77
2022/08/22 03:46:51;;;;;;;25.27;10.75;;;;;;;15.08;94.03;101392.81;5071166;28;20445;-77
2022/08/22 03:49:53;;;;;;;22.25;10.65;;;;;;;15.05;93.78;101379.50;5072340;28;20023;-77
2022/08/22 03:52:30;;;;;;;22.65;10.57;;;;;;;14.98;94.05;101379.19;5072677;28;20024;-77
2022/08/22 03:55:15;;;;;;;20.27;10.40;;;;;;;14.95;93.56;101378.56;5070986;28;20109;-77
2022/08/22 03:57:53;;;;;;;24.23;10.68;;;;;;;14.90;93.52;101383.53;5072046;28;20430;-77
2022/08/22 04:00:37;;;;;;;21.80;10.60;;;;;;;14.87;93.93;101379.22;5072102;28;20024;-77
2022/08/22 04:03:45;;;;;;;22.60;10.73;;;;;;;14.81;93.56;101380.59;5072392;28;20563;-77
2022/08/22 04:06:35;;;;;;;21.55;10.52;;;;;;;14.75;94.04;101377.53;5070947;28;20032;-77
2022/08/22 04:09:18;;;;;;;22.48;10.75;;;;;;;14.71;93.79;101376.91;5072013;28;20025;-77
2022/08/22 04:11:52;;;;;;;20.90;9.75;;;;;;;14.68;93.92;101383.47;5072128;28;20047;-77
2022/08/22 04:14:45;;;;;;;24.17;10.82;;;;;;;14.66;93.85;101388.13;5070797;28;20036;-77
2022/08/22 04:17:32;;;;;;;23.88;10.30;;;;;;;14.65;93.88;101385.53;5070783;28;20496;-77
2022/08/22 04:20:25;;;;;;;22.60;9.90;;;;;;;14.63;95.00;101391.09;5070625;28;20127;-77
2022/08/22 04:22:59;;;;;;;24.10;11.98;;;;;;;14.62;95.35;101393.91;5072089;28;20166;-77
2022/08/22 04:25:39;;;;;;;21.25;10.80;;;;;;;14.63;95.72;101401.91;5071763;28;20028;-77
2022/08/22 04:28:18;;;;;;;24.65;10.38;;;;;;;14.64;96.28;101397.34;5071866;28;20119;-77
2022/08/22 04:31:05;;;;;;;24.60;10.68;;;;;;;14.68;95.69;101398.81;5071866;28;20025;-77
2022/08/22 04:33:43;;;;;;;24.67;11.32;;;;;;;14.71;95.93;101403.13;5050263;28;20052;-77
2022/08/22 04:36:20;;;;;;;21.42;10.25;;;;;;;14.75;96.55;101401.88;5052086;28;20043;-77
2022/08/22 04:39:00;;;;;;;22.88;11.68;;;;;;;14.78;96.19;101394.38;5051874;28;20056;-77
2022/08/22 04:41:47;;;;;;;23.65;11.13;;;;;;;14.78;96.33;101401.63;5050435;28;20024;-77
2022/08/22 04:44:26;;;;;;;23.23;9.90;;;;;;;14.79;96.31;101395.25;5050508;28;20401;-77
2022/08/22 04:47:01;;;;;;;22.70;11.18;;;;;;;14.80;96.54;101396.94;5051729;28;20029;-77
2022/08/22 04:49:46;;;;;;;24.27;10.85;;;;;;;14.84;96.87;101395.72;5050431;28;20619;-77
2022/08/22 04:52:26;;;;;;;24.88;11.40;;;;;;;14.87;96.58;101403.56;5051822;28;20032;-77
2022/08/22 04:55:21;;;;;;;25.25;12.43;;;;;;;14.93;95.94;101402.22;5051413;28;20465;-77
2022/08/22 04:57:56;;;;;;;22.35;10.07;;;;;;;14.95;96.94;101414.63;5050439;28;20032;-77
2022/08/22 05:00:22;;;;;;;23.13;11.35;;;;;;;14.96;97.21;101410.91;5052436;28;20075;-77
2022/08/22 05:02:50;;;;;;;23.92;11.25;;;;;;;14.98;97.51;101411.66;5070209;28;20052;-77
2022/08/22 05:05:23;;;;;;;24.65;11.55;;;;;;;14.98;97.41;101405.41;5070157;28;20035;-77
2022/08/22 05:07:56;;;;;;;23.23;12.13;;;;;;;15.02;96.46;101415.84;5070360;28;20024;-77
2022/08/22 05:10:26;;;;;;;26.00;12.77;;;;;;;15.03;96.11;101414.84;5073698;28;20025;-77
2022/08/22 05:12:56;;;;;;;23.88;10.88;;;;;;;15.08;96.65;101413.59;5074010;28;20032;-77
2022/08/22 05:15:29;;;;;;;23.50;11.55;;;;;;;15.10;96.15;101414.34;5075202;28;20020;-77
2022/08/22 05:17:59;;;;;;;24.40;11.63;;;;;;;15.14;96.32;101421.19;5075065;28;20502;-77
2022/08/22 05:20:27;;;;;;;23.33;11.50;;;;;;;15.20;97.57;101421.56;5075236;28;20052;-77
2022/08/22 05:22:58;;;;;;;23.23;10.65;;;;;;;15.22;97.26;101418.72;5073883;28;20058;-77
2022/08/22 05:25:29;;;;;;;23.45;11.63;;;;;;;15.26;97.78;101425.59;5073810;28;20029;-77
2022/08/22 05:28:13;;;;;;;25.80;12.23;;;;;;;15.29;97.44;101425.34;5073719;28;20020;-77
2022/08/22 05:30:39;;;;;;;23.30;11.93;;;;;;;15.33;98.06;101425.94;5074883;28;20028;-77
2022/08/22 05:33:26;;;;;;;22.70;11.13;;;;;;;15.36;97.23;101426.53;5073381;28;20458;-77
2022/08/22 05:35:57;;;;;;;23.58;11.25;;;;;;;15.37;97.80;101427.41;5075096;28;20054;-77
2022/08/22 05:38:30;;;;;;;22.38;11.40;;;;;;;15.42;98.29;101427.88;5074980;28;20552;-77
2022/08/22 05:41:04;;;;;;;26.55;10.68;;;;;;;15.45;97.57;101429.47;5074809;28;20103;-77
2022/08/22 05:43:36;;;;;;;24.58;12.57;;;;;;;15.49;97.16;101429.09;5073514;28;20047;-77
2022/08/22 05:46:06;;;;;;;23.17;11.52;;;;;;;15.52;97.00;101422.53;5073393;28;20025;-77
2022/08/22 05:48:40;;;;;;;32.03;11.30;;;;;;;15.56;97.05;101423.97;5073375;28;20017;-77
2022/08/22 05:51:20;;;;;;;23.23;11.95;;;;;;;15.61;98.00;101424.47;5073189;28;20024;-77
2022/08/22 05:53:50;;;;;;;21.15;10.98;;;;;;;15.64;98.05;101426.91;5074747;28;20028;-77
2022/08/22 05:56:33;;;;;;;21.67;10.65;;;;;;;15.68;98.42;101424.78;5074498;28;20032;-77
2022/08/22 05:59:09;;;;;;;22.85;10.88;;;;;;;15.72;98.46;101415.41;5073205;28;20060;-77
2022/08/22 06:01:45;;;;;;;22.45;11.05;;;;;;;15.75;98.04;101411.56;5072734;28;20084;-77
2022/08/22 06:04:28;;;;;;;25.58;12.32;;;;;;;15.80;98.29;101420.19;5074394;28;20480;-77
2022/08/22 06:06:59;;;;;;;23.65;11.13;;;;;;;15.85;99.19;101420.66;5074521;28;20025;-77
2022/08/22 06:09:56;;;;;;;24.13;11.43;;;;;;;15.92;99.13;101415.56;5073040;28;20021;-77
2022/08/22 06:12:42;;;;;;;23.23;11.75;;;;;;;15.95;98.56;101427.00;5073257;28;20024;-77
2022/08/22 06:15:10;;;;;;;26.63;11.55;;;;;;;16.00;98.04;101419.34;5074186;28;20464;-77
2022/08/22 06:17:42;;;;;;;25.42;11.98;;;;;;;16.06;98.04;101429.63;5074124;28;20035;-77
2022/08/22 06:20:14;;;;;;;23.50;13.05;;;;;;;16.10;95.68;101430.22;5072530;28;20025;-77
2022/08/22 06:22:48;;;;;;;27.80;12.25;;;;;;;16.17;96.61;101423.25;5074224;28;20024;-77
2022/08/22 06:25:20;;;;;;;27.63;12.20;;;;;;;16.23;96.50;101428.13;5073899;28;20086;-77
2022/08/22 06:27:48;;;;;;;26.35;11.88;;;;;;;16.31;98.19;101427.47;5072676;28;20029;-77
2022/08/22 06:30:15;;;;;;;26.20;12.30;;;;;;;16.34;95.45;101426.31;5073711;28;20020;-77
2022/08/22 06:32:44;;;;;;;26.20;13.10;;;;;;;16.38;95.10;101431.38;5073664;28;20021;-77
2022/08/22 06:36:29;;;;;;;;;;;;;;;16.47;94.82;101426.97;5074411;28;20107;-77
2022/08/22 06:38:18;;;;;;;24.02;12.80;;;;;;;16.54;93.95;101440.84;5073644;28;19916;-77
2022/08/22 06:40:44;;;;;;;26.73;13.60;;;;;;;16.55;92.04;101439.84;5073750;28;20031;-77
2022/08/22 06:43:10;;;;;;;24.80;14.20;;;;;;;16.59;92.14;101433.16;5072196;28;20028;-77
2022/08/22 06:45:38;;;;;;;24.90;13.05;;;;;;;16.63;91.72;101448.16;5072172;28;20174;-77
2022/08/22 06:48:06;;;;;;;26.05;13.63;;;;;;;16.70;93.30;101448.47;5072283;28;20523;-77
2022/08/22 06:50:38;;;;;;;28.45;13.98;;;;;;;16.72;92.06;101441.91;5073493;28;20032;-77
2022/08/22 06:53:06;;;;;;;25.17;13.73;;;;;;;16.77;91.11;101445.06;5072319;28;20025;-77
2022/08/22 06:55:34;;;;;;;27.00;13.75;;;;;;;16.83;91.58;101453.66;5073401;28;20103;-77
2022/08/22 06:58:03;;;;;;;25.02;13.15;;;;;;;16.88;91.93;101456.81;5073238;28;20509;-77
2022/08/22 07:00:32;;;;;;;26.60;14.77;;;;;;;16.93;92.14;101463.56;5071903;28;20028;-77
2022/08/22 07:03:06;;;;;;;27.77;15.10;;;;;;;16.97;92.04;101458.72;5071857;28;20020;-77
2022/08/22 07:05:36;;;;;;;24.92;14.20;;;;;;;17.01;91.10;101462.84;5073245;28;20020;-77
2022/08/22 07:08:14;;;;;;;26.83;13.55;;;;;;;17.03;90.74;101465.44;5072017;28;20051;-77
2022/08/22 07:10:42;;;;;;;28.30;15.63;;;;;;;17.06;91.56;101459.75;5071708;28;20504;-77
2022/08/22 07:13:13;;;;;;;24.67;14.77;;;;;;;17.11;93.06;101460.16;5073005;28;20028;-77
2022/08/22 07:15:41;;;;;;;26.25;14.90;;;;;;;17.14;91.58;101456.31;5072906;28;20024;-77
2022/08/22 07:18:18;;;;;;;26.95;15.60;;;;;;;17.18;92.36;101465.91;5071609;28;20397;-77
2022/08/22 07:20:51;;;;;;;25.63;15.52;;;;;;;17.16;90.19;101465.19;5071570;28;20044;-77
2022/08/22 07:23:38;;;;;;;27.98;16.45;;;;;;;17.23;92.06;101460.91;5071644;28;20484;-77
2022/08/22 07:26:21;;;;;;;26.67;16.00;;;;;;;17.24;90.07;101463.47;5072733;28;20019;-77
2022/08/22 07:28:52;;;;;;;26.98;14.40;;;;;;;17.29;90.17;101457.59;5072777;28;20052;-77
2022/08/22 07:31:39;;;;;;;26.52;15.45;;;;;;;17.34;90.76;101455.34;5071099;28;20021;-77
2022/08/22 07:34:17;;;;;;;24.90;14.80;;;;;;;17.42;nan;101454.63;5072196;28;20530;-77
2022/08/22 07:36:49;;;;;;;27.40;15.55;;;;;;;17.47;89.19;101458.63;5072726;28;20025;-77
2022/08/22 07:39:32;;;;;;;30.08;16.45;;;;;;;17.55;89.75;101454.34;5072642;28;20028;-77
2022/08/22 07:42:09;;;;;;;25.17;15.48;;;;;;;17.65;88.71;101450.59;5071186;28;20078;-77
2022/08/22 07:44:58;;;;;;;25.45;14.70;;;;;;;17.74;87.63;101439.88;5071147;28;20056;-77
2022/08/22 07:47:45;;;;;;;22.88;12.52;;;;;;;17.83;87.49;101436.28;5072481;28;20024;-77
2022/08/22 07:50:18;;;;;;;24.25;14.77;;;;;;;17.94;88.31;101443.47;5072491;28;20024;-77
2022/08/22 07:52:44;;;;;;;25.98;14.77;;;;;;;18.04;87.81;101440.69;5071060;28;20020;-77
2022/08/22 07:55:23;;;;;;;31.25;16.60;;;;;;;18.12;85.91;101441.69;5071042;28;20023;-77
2022/08/22 07:58:00;;;;;;;26.20;14.97;;;;;;;18.20;85.56;101442.81;5070921;28;20032;-77
2022/08/22 08:00:28;;;;;;;27.30;15.63;;;;;;;18.29;85.81;101437.34;5072087;28;20028;-77
2022/08/22 08:02:57;;;;;;;28.80;14.85;;;;;;;18.39;86.56;101442.75;5070824;28;20028;-77
2022/08/22 08:05:27;;;;;;;26.55;14.88;;;;;;;18.47;83.69;101439.28;5072198;28;20032;-77
2022/08/22 08:07:55;;;;;;;26.80;14.57;;;;;;;18.56;83.27;101432.06;5072226;28;20024;-77
2022/08/22 08:10:31;;;;;;;26.92;14.23;;;;;;;18.60;84.05;101428.91;5070754;28;20036;-77
2022/08/22 08:13:03;;;;;;;24.95;14.38;;;;;;;18.66;83.72;101438.34;5071990;28;20051;-77
2022/08/22 08:15:33;;;;;;;25.67;15.13;;;;;;;18.71;84.40;101430.56;5070881;28;20085;-77
2022/08/22 08:18:07;;;;;;;26.77;15.75;;;;;;;18.78;83.63;101426.22;5072205;28;20020;-78
2022/08/22 08:20:36;;;;;;;24.52;14.30;;;;;;;18.85;84.12;101427.31;5072074;28;20078;-78
2022/08/22 08:23:05;;;;;;;26.90;14.98;;;;;;;18.96;84.64;101414.53;5070770;28;20503;-78
2022/08/22 08:25:36;;;;;;;24.13;13.15;;;;;;;18.98;82.42;101410.66;5071717;28;20032;-78
2022/08/22 08:30:58;;;;;;;23.85;8.82;;;;;;;19.07;81.29;101417.03;5072126;28;20043;-76
2022/08/22 08:33:27;;;;;;;20.35;9.65;;;;;;;19.08;81.26;101418.75;5051670;28;20053;-75
2022/08/22 08:36:05;;;;;;;18.75;6.00;;;;;;;19.09;81.66;101417.72;5050587;28;20017;-76
2022/08/22 08:38:39;;;;;;;23.10;11.88;;;;;;;19.21;80.11;101421.09;5050560;28;20115;-76
2022/08/22 08:41:23;;;;;;;20.17;8.80;;;;;;;19.23;81.83;101419.06;5050569;28;20439;-76
2022/08/22 08:43:59;;;;;;;19.23;6.28;;;;;;;19.26;81.70;101415.19;5053184;28;20020;-76
2022/08/22 08:46:34;;;;;;;18.02;6.47;;;;;;;19.26;80.97;101413.31;5054506;28;20025;-76
2022/08/22 08:49:28;;;;;;;22.45;9.52;;;;;;;19.32;80.33;101415.41;5055871;28;20060;-69
2022/08/22 08:52:31;;;;;;;21.90;11.35;;;;;;;19.40;80.03;101420.09;5055800;28;20021;-69
2022/08/22 08:55:02;;;;;;;23.38;9.68;;;;;;;19.47;77.05;101415.69;5055741;28;20021;-71
2022/08/22 08:57:44;;;;;;;23.90;9.68;;;;;;;19.55;78.77;101413.06;5054411;28;20032;-71
2022/08/22 09:00:47;;;;;;;21.25;10.00;;;;;;;19.61;78.15;101419.75;5054738;28;20457;-67
2022/08/22 09:03:50;;;;;;;23.25;7.45;;;;;;;19.66;79.13;101408.38;5075530;28;20534;-66
2022/08/22 09:06:40;;;;;;;29.05;8.13;;;;;;;19.69;78.49;101402.59;5075490;28;20031;-67
2022/08/22 09:09:49;;;;;;;20.95;8.45;;;;;;;19.73;77.02;101404.00;5075379;28;20551;-66
2022/08/22 09:12:51;;;;;;;15.20;5.82;;;;;;;19.77;76.78;101408.13;5075439;28;20032;-66
2022/08/22 09:15:31;;;;;;;18.83;6.38;;;;;;;19.84;73.19;101411.06;5075106;28;20073;-66
2022/08/22 09:18:13;;;;;;;14.93;5.20;;;;;;;19.88;73.75;101407.91;5075125;28;20039;-66
2022/08/22 09:20:59;;;;;;;20.38;5.80;;;;;;;19.93;74.72;101409.25;5075266;28;20438;-65
2022/08/22 09:23:58;;;;;;;22.52;7.28;;;;;;;19.99;73.33;101408.63;5075223;28;20028;-66
2022/08/22 09:26:42;;;;;;;19.92;7.22;;;;;;;20.03;73.30;101412.72;5075001;28;20028;-77
2022/08/22 09:29:26;;;;;;;18.02;6.07;;;;;;;20.10;70.40;101402.03;5073808;28;20028;-79
2022/08/22 09:32:06;;;;;;;17.23;5.25;;;;;;;20.15;68.55;101403.28;5073332;28;20123;-77
2022/08/22 09:34:45;;;;;;;16.67;5.53;;;;;;;20.21;68.07;101402.63;5074518;28;20040;-77
2022/08/22 09:37:13;;;;;;;18.07;5.77;;;;;;;20.28;67.74;101402.84;5075235;28;20410;-77
2022/08/22 09:39:56;;;;;;;15.88;5.18;;;;;;;20.34;67.57;101398.59;5073707;28;20051;-77
2022/08/22 09:42:40;;;;;;;19.73;5.75;;;;;;;20.39;67.34;101398.94;5074839;28;20282;-77
2022/08/22 09:45:34;;;;;;;22.08;6.28;;;;;;;20.46;67.79;101407.34;5074667;28;20402;-77
2022/08/22 09:48:28;;;;;;;19.55;7.07;;;;;;;20.53;67.53;101412.00;5074696;28;20153;-77
2022/08/22 09:51:14;;;;;;;19.40;6.43;;;;;;;20.58;68.36;101406.03;5072727;28;20025;-77
2022/08/22 09:53:51;;;;;;;21.98;7.10;;;;;;;20.62;67.93;101404.69;5072866;28;20017;-77
2022/08/22 09:56:29;;;;;;;20.73;6.15;;;;;;;20.69;68.17;101399.44;5072736;28;20504;-77
2022/08/22 09:59:17;;;;;;;22.67;5.78;;;;;;;20.74;68.78;101408.00;5073340;28;20070;-77
2022/08/22 10:01:51;;;;;;;18.00;5.85;;;;;;;20.84;64.73;101402.41;5074367;28;20024;-77
2022/08/22 10:04:38;;;;;;;21.50;5.45;;;;;;;20.91;65.10;101398.81;5074437;28;20016;-77
2022/08/22 10:07:27;;;;;;;22.55;6.13;;;;;;;20.95;64.36;101392.00;5073193;28;20074;-77
2022/08/22 10:10:03;;;;;;;;;;;;;;;20.97;66.66;101389.09;5074827;28;20025;-77
2022/08/22 10:12:46;;;;;;;16.75;4.85;;;;;;;21.02;65.22;101389.44;5089981;28;19909;-77
2022/08/22 10:15:26;;;;;;;18.15;5.78;;;;;;;21.06;62.75;101384.50;5074253;28;20534;-77
2022/08/22 10:18:18;;;;;;;14.27;5.00;;;;;;;21.13;64.01;101385.53;5074058;28;20024;-77
2022/08/22 10:21:08;;;;;;;19.08;6.25;;;;;;;21.17;61.57;101386.91;5074331;28;20033;-77
2022/08/22 10:23:45;;;;;;;14.52;5.25;;;;;;;21.23;62.42;101386.25;5073232;28;20074;-77
2022/08/22 10:26:27;;;;;;;16.58;5.65;;;;;;;21.29;58.86;101380.09;5073761;28;20024;-77
2022/08/22 10:29:11;;;;;;;21.80;5.35;;;;;;;21.38;58.07;101380.09;5072887;28;20020;-77
2022/08/22 10:31:44;;;;;;;16.70;5.03;;;;;;;21.46;58.65;101377.34;5072608;28;20128;-77
2022/08/22 10:34:24;;;;;;;17.17;5.22;;;;;;;21.50;59.86;101370.50;5073813;28;20044;-77
2022/08/22 10:36:58;;;;;;;16.63;5.88;;;;;;;21.55;58.70;101375.50;5073242;28;20029;-77
2022/08/22 10:39:29;;;;;;;20.58;6.03;;;;;;;21.59;59.44;101374.13;5072701;28;20024;-77
2022/08/22 10:42:10;;;;;;;18.52;5.57;;;;;;;21.63;59.23;101370.88;5072745;28;20059;-77
2022/08/22 10:45:10;;;;;;;19.52;6.13;;;;;;;21.67;60.71;101363.19;5073697;28;20025;-78
2022/08/22 10:47:56;;;;;;;17.15;5.13;;;;;;;21.71;60.13;101355.47;5072288;28;20166;-78
2022/08/22 10:50:30;;;;;;;15.93;5.30;;;;;;;21.73;58.24;101356.13;5072479;28;20052;-78
2022/08/22 10:53:34;;;;;;;16.08;4.90;;;;;;;21.72;57.77;101363.50;5073680;28;20099;-78
2022/08/22 10:56:20;;;;;;;14.55;4.32;;;;;;;21.75;59.48;101346.75;5072207;28;20017;-78
2022/08/22 10:58:54;;;;;;;9.95;3.20;;;;;;;21.75;54.71;101354.09;5073461;28;20126;-78
2022/08/22 11:01:24;;;;;;;12.13;4.05;;;;;;;21.79;54.81;101350.84;5073359;28;20067;-78
2022/08/22 11:04:02;;;;;;;;;;;;;;;21.80;58.53;101355.28;5073656;28;20025;-78
2022/08/22 11:06:47;;;;;;;12.25;4.28;;;;;;;21.82;59.09;101353.22;5088557;28;20337;-78
2022/08/22 11:09:36;;;;;;;16.15;4.78;;;;;;;21.85;58.55;101362.13;5072994;28;20024;-78
2022/08/22 11:12:18;;;;;;;14.38;3.97;;;;;;;21.88;56.81;101357.16;5072947;28;20104;-78
2022/08/22 11:15:06;;;;;;;13.40;4.22;;;;;;;21.91;59.69;101356.78;5071879;28;20032;-78
2022/08/22 11:18:06;;;;;;;14.10;4.13;;;;;;;21.95;58.85;101355.44;5071751;28;20066;-78
2022/08/22 11:20:59;;;;;;;15.68;5.47;;;;;;;22.02;57.93;101341.03;5073058;28;20527;-78
2022/08/22 11:23:33;;;;;;;14.88;5.05;;;;;;;22.06;56.33;101345.13;5072946;28;20036;-78
2022/08/22 11:26:06;;;;;;;17.40;5.50;;;;;;;22.10;55.57;101349.22;5072815;28;20033;-78
2022/08/22 11:28:50;;;;;;;17.80;5.40;;;;;;;22.14;58.54;101351.44;5072559;28;20027;-78
2022/08/22 11:31:45;;;;;;;18.58;5.32;;;;;;;22.17;56.18;101351.06;5071282;28;20032;-78
2022/08/22 11:34:19;;;;;;;17.48;5.07;;;;;;;22.17;56.25;101345.59;5053692;28;20510;-78
2022/08/22 11:36:51;;;;;;;11.02;4.57;;;;;;;22.20;55.49;101335.31;5072831;28;20503;-78
2022/08/22 11:39:26;;;;;;;13.82;4.28;;;;;;;22.21;56.84;101335.13;5071401;28;20035;-78
2022/08/22 11:42:18;;;;;;;14.63;4.70;;;;;;;22.25;56.69;101339.22;5072625;28;20032;-78
2022/08/22 11:44:59;;;;;;;13.70;4.68;;;;;;;22.28;54.51;101343.50;5072663;28;20481;-78
2022/08/22 11:47:30;;;;;;;20.05;4.95;;;;;;;22.29;55.15;101337.00;5071143;28;20028;-78
2022/08/22 11:50:09;;;;;;;12.13;4.13;;;;;;;22.32;57.70;101332.03;5072440;28;20365;-78
2022/08/22 11:52:43;;;;;;;13.20;4.75;;;;;;;22.38;56.86;101335.13;5071142;28;20093;-78
2022/08/22 11:55:19;;;;;;;15.20;4.75;;;;;;;22.40;55.62;101338.50;5071073;28;20032;-78
2022/08/22 11:57:51;;;;;;;14.27;4.43;;;;;;;22.42;54.78;101331.00;5072277;28;20024;-78
2022/08/22 12:00:19;;;;;;;16.52;5.10;;;;;;;22.42;54.13;101333.72;5072164;28;20030;-78
2022/08/22 12:03:29;;;;;;;12.97;4.57;;;;;;;22.43;56.49;101333.56;5072521;28;20088;-78
2022/08/22 12:06:06;;;;;;;14.95;4.90;;;;;;;22.46;55.42;101332.31;5050677;28;20127;-78
2022/08/22 12:08:32;;;;;;;11.70;4.78;;;;;;;22.46;56.00;101332.31;5070878;28;20028;-78
2022/08/22 12:11:12;;;;;;;18.60;4.87;;;;;;;22.45;53.87;101330.63;5072130;28;20016;-78
2022/08/22 12:13:48;;;;;;;17.30;4.47;;;;;;;22.46;55.83;101329.56;5070787;28;20289;-78
2022/08/22 12:16:37;;;;;;;11.93;4.35;;;;;;;22.46;54.88;101335.06;5070916;28;20020;-78